sensor_id;sensor_type;location;lat;lon;timestamp;P1;durP1;ratioP1;P2;durP2;ratioP2
6898;SDS011;3488;42.616;23.350;2022-10-17T00:00:38;11.43;;;8.43;;
6898;SDS011;3488;42.616;23.350;2022-10-17T00:03:05;9.07;;;6.53;;
6898;SDS011;3488;42.616;23.350;2022-10-17T00:05:32;14.30;;;8.38;;
6898;SDS011;3488;42.616;23.350;2022-10-17T00:08:01;10.43;;;7.53;;
6898;SDS011;3488;42.616;23.350;2022-10-17T00:10:27;10.98;;;6.43;;
6898;SDS011;3488;42.616;23.350;2022-10-17T00:12:54;7.03;;;5.35;;
6898;SDS011;3488;42.616;23.350;2022-10-17T00:15:21;6.93;;;5.40;;
6898;SDS011;3488;42.616;23.350;2022-10-17T00:17:48;5.60;;;5.10;;
6898;SDS011;3488;42.616;23.350;2022-10-17T00:20:15;6.53;;;5.57;;
6898;SDS011;3488;42.616;23.350;2022-10-17T00:22:42;6.80;;;5.40;;
6898;SDS011;3488;42.616;23.350;2022-10-17T00:25:11;6.70;;;5.43;;
6898;SDS011;3488;42.616;23.350;2022-10-17T00:27:38;10.10;;;5.78;;
6898;SDS011;3488;42.616;23.350;2022-10-17T00:30:08;6.90;;;6.30;;
6898;SDS011;3488;42.616;23.350;2022-10-17T00:32:37;8.73;;;6.75;;
6898;SDS011;3488;42.616;23.350;2022-10-17T00:35:04;7.88;;;6.78;;
6898;SDS011;3488;42.616;23.350;2022-10-17T00:37:31;7.43;;;6.32;;
6898;SDS011;3488;42.616;23.350;2022-10-17T00:39:58;9.63;;;7.68;;
6898;SDS011;3488;42.616;23.350;2022-10-17T00:42:26;10.65;;;7.00;;
6898;SDS011;3488;42.616;23.350;2022-10-17T00:45:09;7.70;;;6.90;;
6898;SDS011;3488;42.616;23.350;2022-10-17T00:47:43;7.70;;;6.80;;
6898;SDS011;3488;42.616;23.350;2022-10-17T00:50:13;9.32;;;6.82;;
6898;SDS011;3488;42.616;23.350;2022-10-17T00:52:41;10.90;;;7.32;;
6898;SDS011;3488;42.616;23.350;2022-10-17T00:55:10;11.15;;;7.60;;
6898;SDS011;3488;42.616;23.350;2022-10-17T00:57:40;10.38;;;7.65;;
6898;SDS011;3488;42.616;23.350;2022-10-17T01:00:09;15.45;;;7.90;;
6898;SDS011;3488;42.616;23.350;2022-10-17T01:02:38;8.23;;;7.00;;
6898;SDS011;3488;42.616;23.350;2022-10-17T01:05:05;9.25;;;6.95;;
6898;SDS011;3488;42.616;23.350;2022-10-17T01:07:33;13.50;;;7.82;;
6898;SDS011;3488;42.616;23.350;2022-10-17T01:10:01;9.05;;;7.10;;
6898;SDS011;3488;42.616;23.350;2022-10-17T01:12:30;7.65;;;6.70;;
6898;SDS011;3488;42.616;23.350;2022-10-17T01:15:07;10.55;;;7.30;;
6898;SDS011;3488;42.616;23.350;2022-10-17T01:17:42;9.55;;;7.57;;
6898;SDS011;3488;42.616;23.350;2022-10-17T01:20:30;9.63;;;7.00;;
6898;SDS011;3488;42.616;23.350;2022-10-17T01:23:46;10.02;;;6.30;;
6898;SDS011;3488;42.616;23.350;2022-10-17T01:26:32;6.88;;;5.97;;
6898;SDS011;3488;42.616;23.350;2022-10-17T01:29:28;7.13;;;6.50;;
6898;SDS011;3488;42.616;23.350;2022-10-17T01:32:09;7.68;;;6.65;;
6898;SDS011;3488;42.616;23.350;2022-10-17T01:34:43;6.03;;;5.53;;
6898;SDS011;3488;42.616;23.350;2022-10-17T01:37:18;8.82;;;7.00;;
6898;SDS011;3488;42.616;23.350;2022-10-17T01:39:53;6.30;;;5.15;;
6898;SDS011;3488;42.616;23.350;2022-10-17T01:42:30;5.70;;;5.10;;
6898;SDS011;3488;42.616;23.350;2022-10-17T01:45:02;6.65;;;4.82;;
6898;SDS011;3488;42.616;23.350;2022-10-17T01:47:36;4.50;;;4.15;;
6898;SDS011;3488;42.616;23.350;2022-10-17T01:50:05;4.60;;;4.30;;
6898;SDS011;3488;42.616;23.350;2022-10-17T01:52:37;4.65;;;4.30;;
6898;SDS011;3488;42.616;23.350;2022-10-17T01:55:11;4.15;;;3.85;;
6898;SDS011;3488;42.616;23.350;2022-10-17T01:57:43;3.92;;;3.53;;
6898;SDS011;3488;42.616;23.350;2022-10-17T02:00:15;4.70;;;4.22;;
6898;SDS011;3488;42.616;23.350;2022-10-17T02:02:46;4.05;;;3.70;;
6898;SDS011;3488;42.616;23.350;2022-10-17T02:05:15;8.20;;;4.80;;
6898;SDS011;3488;42.616;23.350;2022-10-17T02:07:44;7.20;;;4.85;;
6898;SDS011;3488;42.616;23.350;2022-10-17T02:10:12;6.90;;;4.30;;
6898;SDS011;3488;42.616;23.350;2022-10-17T02:12:58;5.43;;;5.00;;
6898;SDS011;3488;42.616;23.350;2022-10-17T02:15:39;6.03;;;5.50;;
6898;SDS011;3488;42.616;23.350;2022-10-17T02:18:34;5.88;;;5.05;;
6898;SDS011;3488;42.616;23.350;2022-10-17T02:21:13;9.13;;;5.43;;
6898;SDS011;3488;42.616;23.350;2022-10-17T02:23:47;6.97;;;4.95;;
6898;SDS011;3488;42.616;23.350;2022-10-17T02:26:20;7.22;;;5.03;;
6898;SDS011;3488;42.616;23.350;2022-10-17T02:28:54;4.60;;;4.20;;
6898;SDS011;3488;42.616;23.350;2022-10-17T02:31:29;7.47;;;4.07;;
6898;SDS011;3488;42.616;23.350;2022-10-17T02:34:01;7.95;;;5.53;;
6898;SDS011;3488;42.616;23.350;2022-10-17T02:36:31;5.25;;;4.72;;
6898;SDS011;3488;42.616;23.350;2022-10-17T02:39:03;7.18;;;4.78;;
6898;SDS011;3488;42.616;23.350;2022-10-17T02:41:32;5.30;;;4.80;;
6898;SDS011;3488;42.616;23.350;2022-10-17T02:44:00;4.82;;;4.35;;
6898;SDS011;3488;42.616;23.350;2022-10-17T02:46:28;7.60;;;5.00;;
6898;SDS011;3488;42.616;23.350;2022-10-17T02:48:57;5.95;;;5.10;;
6898;SDS011;3488;42.616;23.350;2022-10-17T02:51:28;6.55;;;5.85;;
6898;SDS011;3488;42.616;23.350;2022-10-17T02:54:04;6.10;;;5.13;;
6898;SDS011;3488;42.616;23.350;2022-10-17T02:56:35;7.93;;;5.90;;
6898;SDS011;3488;42.616;23.350;2022-10-17T02:59:06;18.48;;;9.07;;
6898;SDS011;3488;42.616;23.350;2022-10-17T03:01:37;14.63;;;9.80;;
6898;SDS011;3488;42.616;23.350;2022-10-17T03:04:05;21.15;;;9.15;;
6898;SDS011;3488;42.616;23.350;2022-10-17T03:06:34;16.85;;;8.10;;
6898;SDS011;3488;42.616;23.350;2022-10-17T03:09:01;11.98;;;7.78;;
6898;SDS011;3488;42.616;23.350;2022-10-17T03:11:29;11.50;;;7.63;;
6898;SDS011;3488;42.616;23.350;2022-10-17T03:13:56;11.73;;;7.75;;
6898;SDS011;3488;42.616;23.350;2022-10-17T03:16:22;9.70;;;7.32;;
6898;SDS011;3488;42.616;23.350;2022-10-17T03:18:49;9.30;;;6.97;;
6898;SDS011;3488;42.616;23.350;2022-10-17T03:21:16;13.90;;;8.63;;
6898;SDS011;3488;42.616;23.350;2022-10-17T03:23:45;7.50;;;6.35;;
6898;SDS011;3488;42.616;23.350;2022-10-17T03:26:13;10.40;;;6.88;;
6898;SDS011;3488;42.616;23.350;2022-10-17T03:28:39;8.13;;;6.22;;
6898;SDS011;3488;42.616;23.350;2022-10-17T03:31:07;9.75;;;6.13;;
6898;SDS011;3488;42.616;23.350;2022-10-17T03:33:35;8.00;;;5.82;;
6898;SDS011;3488;42.616;23.350;2022-10-17T03:36:04;8.23;;;6.13;;
6898;SDS011;3488;42.616;23.350;2022-10-17T03:38:32;7.35;;;6.28;;
6898;SDS011;3488;42.616;23.350;2022-10-17T03:41:01;6.07;;;5.47;;
6898;SDS011;3488;42.616;23.350;2022-10-17T03:43:28;6.60;;;5.65;;
6898;SDS011;3488;42.616;23.350;2022-10-17T03:45:55;6.40;;;5.30;;
6898;SDS011;3488;42.616;23.350;2022-10-17T03:48:23;8.95;;;6.65;;
6898;SDS011;3488;42.616;23.350;2022-10-17T03:50:50;11.07;;;6.10;;
6898;SDS011;3488;42.616;23.350;2022-10-17T03:53:17;6.35;;;5.05;;
6898;SDS011;3488;42.616;23.350;2022-10-17T03:55:44;6.22;;;5.63;;
6898;SDS011;3488;42.616;23.350;2022-10-17T03:58:12;5.95;;;5.35;;
6898;SDS011;3488;42.616;23.350;2022-10-17T04:00:39;8.88;;;5.88;;
6898;SDS011;3488;42.616;23.350;2022-10-17T04:03:06;4.70;;;4.30;;
6898;SDS011;3488;42.616;23.350;2022-10-17T04:05:33;6.68;;;4.82;;
6898;SDS011;3488;42.616;23.350;2022-10-17T04:07:59;8.95;;;6.90;;
6898;SDS011;3488;42.616;23.350;2022-10-17T04:10:26;7.07;;;5.85;;
6898;SDS011;3488;42.616;23.350;2022-10-17T04:12:53;5.25;;;4.75;;
6898;SDS011;3488;42.616;23.350;2022-10-17T04:15:22;8.82;;;5.00;;
6898;SDS011;3488;42.616;23.350;2022-10-17T04:17:48;5.53;;;5.03;;
6898;SDS011;3488;42.616;23.350;2022-10-17T04:20:15;6.47;;;5.05;;
6898;SDS011;3488;42.616;23.350;2022-10-17T04:22:42;4.97;;;4.50;;
6898;SDS011;3488;42.616;23.350;2022-10-17T04:25:09;6.70;;;6.03;;
6898;SDS011;3488;42.616;23.350;2022-10-17T04:27:36;12.55;;;6.32;;
6898;SDS011;3488;42.616;23.350;2022-10-17T04:30:03;6.43;;;5.82;;
6898;SDS011;3488;42.616;23.350;2022-10-17T04:32:34;6.32;;;5.75;;
6898;SDS011;3488;42.616;23.350;2022-10-17T04:35:02;15.98;;;12.18;;
6898;SDS011;3488;42.616;23.350;2022-10-17T04:37:30;11.48;;;8.65;;
6898;SDS011;3488;42.616;23.350;2022-10-17T04:39:57;10.35;;;8.77;;
6898;SDS011;3488;42.616;23.350;2022-10-17T04:42:24;11.63;;;9.30;;
6898;SDS011;3488;42.616;23.350;2022-10-17T04:44:51;16.15;;;10.90;;
6898;SDS011;3488;42.616;23.350;2022-10-17T04:47:17;13.40;;;8.57;;
6898;SDS011;3488;42.616;23.350;2022-10-17T04:49:46;10.30;;;7.43;;
6898;SDS011;3488;42.616;23.350;2022-10-17T04:52:12;10.27;;;7.38;;
6898;SDS011;3488;42.616;23.350;2022-10-17T04:54:40;8.30;;;7.10;;
6898;SDS011;3488;42.616;23.350;2022-10-17T04:57:06;9.63;;;7.38;;
6898;SDS011;3488;42.616;23.350;2022-10-17T04:59:33;9.35;;;6.70;;
6898;SDS011;3488;42.616;23.350;2022-10-17T05:02:00;10.05;;;7.28;;
6898;SDS011;3488;42.616;23.350;2022-10-17T05:04:27;7.95;;;6.78;;
6898;SDS011;3488;42.616;23.350;2022-10-17T05:06:55;11.48;;;7.78;;
6898;SDS011;3488;42.616;23.350;2022-10-17T05:09:22;8.95;;;7.90;;
6898;SDS011;3488;42.616;23.350;2022-10-17T05:11:49;13.43;;;8.63;;
6898;SDS011;3488;42.616;23.350;2022-10-17T05:14:15;8.13;;;7.22;;
6898;SDS011;3488;42.616;23.350;2022-10-17T05:16:42;12.18;;;9.35;;
6898;SDS011;3488;42.616;23.350;2022-10-17T05:19:09;10.43;;;7.85;;
6898;SDS011;3488;42.616;23.350;2022-10-17T05:21:37;14.95;;;8.68;;
6898;SDS011;3488;42.616;23.350;2022-10-17T05:24:05;8.88;;;7.78;;
6898;SDS011;3488;42.616;23.350;2022-10-17T05:26:33;14.85;;;8.40;;
6898;SDS011;3488;42.616;23.350;2022-10-17T05:29:00;12.43;;;7.80;;
6898;SDS011;3488;42.616;23.350;2022-10-17T05:31:28;11.63;;;9.20;;
6898;SDS011;3488;42.616;23.350;2022-10-17T05:33:58;10.50;;;8.20;;
6898;SDS011;3488;42.616;23.350;2022-10-17T05:36:25;9.23;;;8.25;;
6898;SDS011;3488;42.616;23.350;2022-10-17T05:38:52;10.68;;;8.10;;
6898;SDS011;3488;42.616;23.350;2022-10-17T05:41:21;17.85;;;11.15;;
6898;SDS011;3488;42.616;23.350;2022-10-17T05:43:47;14.80;;;10.85;;
6898;SDS011;3488;42.616;23.350;2022-10-17T05:46:14;13.80;;;9.65;;
6898;SDS011;3488;42.616;23.350;2022-10-17T05:48:41;14.20;;;10.05;;
6898;SDS011;3488;42.616;23.350;2022-10-17T05:51:08;17.95;;;10.88;;
6898;SDS011;3488;42.616;23.350;2022-10-17T05:53:36;14.95;;;9.85;;
6898;SDS011;3488;42.616;23.350;2022-10-17T05:56:05;13.60;;;10.57;;
6898;SDS011;3488;42.616;23.350;2022-10-17T05:58:34;14.80;;;10.00;;
6898;SDS011;3488;42.616;23.350;2022-10-17T06:01:02;14.02;;;9.63;;
6898;SDS011;3488;42.616;23.350;2022-10-17T06:03:30;12.13;;;8.65;;
6898;SDS011;3488;42.616;23.350;2022-10-17T06:06:01;13.32;;;9.05;;
6898;SDS011;3488;42.616;23.350;2022-10-17T06:08:29;12.43;;;10.10;;
6898;SDS011;3488;42.616;23.350;2022-10-17T06:10:56;17.10;;;9.63;;
6898;SDS011;3488;42.616;23.350;2022-10-17T06:13:23;16.23;;;10.82;;
6898;SDS011;3488;42.616;23.350;2022-10-17T06:15:51;17.77;;;11.35;;
6898;SDS011;3488;42.616;23.350;2022-10-17T06:18:18;21.73;;;12.18;;
6898;SDS011;3488;42.616;23.350;2022-10-17T06:20:46;18.00;;;11.90;;
6898;SDS011;3488;42.616;23.350;2022-10-17T06:23:12;27.95;;;11.82;;
6898;SDS011;3488;42.616;23.350;2022-10-17T06:25:39;23.75;;;13.20;;
6898;SDS011;3488;42.616;23.350;2022-10-17T06:28:07;16.95;;;11.90;;
6898;SDS011;3488;42.616;23.350;2022-10-17T06:30:36;19.38;;;11.55;;
6898;SDS011;3488;42.616;23.350;2022-10-17T06:33:04;23.65;;;12.95;;
6898;SDS011;3488;42.616;23.350;2022-10-17T06:35:31;18.88;;;12.43;;
6898;SDS011;3488;42.616;23.350;2022-10-17T06:37:58;19.13;;;11.68;;
6898;SDS011;3488;42.616;23.350;2022-10-17T06:40:25;29.50;;;13.40;;
6898;SDS011;3488;42.616;23.350;2022-10-17T06:42:52;24.85;;;11.00;;
6898;SDS011;3488;42.616;23.350;2022-10-17T06:45:19;17.23;;;11.10;;
6898;SDS011;3488;42.616;23.350;2022-10-17T06:47:45;17.55;;;11.77;;
6898;SDS011;3488;42.616;23.350;2022-10-17T06:50:15;17.88;;;11.32;;
6898;SDS011;3488;42.616;23.350;2022-10-17T06:52:42;17.00;;;11.50;;
6898;SDS011;3488;42.616;23.350;2022-10-17T06:55:09;17.42;;;11.00;;
6898;SDS011;3488;42.616;23.350;2022-10-17T06:57:35;16.88;;;10.68;;
6898;SDS011;3488;42.616;23.350;2022-10-17T07:00:03;25.42;;;10.43;;
6898;SDS011;3488;42.616;23.350;2022-10-17T07:02:30;20.17;;;10.27;;
6898;SDS011;3488;42.616;23.350;2022-10-17T07:04:56;21.73;;;12.40;;
6898;SDS011;3488;42.616;23.350;2022-10-17T07:07:24;20.13;;;11.40;;
6898;SDS011;3488;42.616;23.350;2022-10-17T07:09:51;15.98;;;10.48;;
6898;SDS011;3488;42.616;23.350;2022-10-17T07:12:18;21.45;;;10.50;;
6898;SDS011;3488;42.616;23.350;2022-10-17T07:14:45;23.58;;;11.23;;
6898;SDS011;3488;42.616;23.350;2022-10-17T07:17:14;16.10;;;10.07;;
6898;SDS011;3488;42.616;23.350;2022-10-17T07:19:41;14.90;;;9.20;;
6898;SDS011;3488;42.616;23.350;2022-10-17T07:22:08;15.05;;;9.70;;
6898;SDS011;3488;42.616;23.350;2022-10-17T07:24:37;10.23;;;7.95;;
6898;SDS011;3488;42.616;23.350;2022-10-17T07:27:03;11.70;;;7.68;;
6898;SDS011;3488;42.616;23.350;2022-10-17T07:29:30;9.65;;;7.18;;
6898;SDS011;3488;42.616;23.350;2022-10-17T07:31:57;9.13;;;6.25;;
6898;SDS011;3488;42.616;23.350;2022-10-17T07:34:24;7.55;;;5.95;;
6898;SDS011;3488;42.616;23.350;2022-10-17T07:36:54;10.15;;;6.07;;
6898;SDS011;3488;42.616;23.350;2022-10-17T07:39:21;6.15;;;5.55;;
6898;SDS011;3488;42.616;23.350;2022-10-17T07:41:49;6.20;;;5.60;;
6898;SDS011;3488;42.616;23.350;2022-10-17T07:44:17;10.48;;;6.43;;
6898;SDS011;3488;42.616;23.350;2022-10-17T07:46:43;7.05;;;6.30;;
6898;SDS011;3488;42.616;23.350;2022-10-17T07:49:10;9.55;;;5.90;;
6898;SDS011;3488;42.616;23.350;2022-10-17T07:51:37;7.30;;;6.60;;
6898;SDS011;3488;42.616;23.350;2022-10-17T07:54:04;7.05;;;6.22;;
6898;SDS011;3488;42.616;23.350;2022-10-17T07:56:31;9.50;;;6.95;;
6898;SDS011;3488;42.616;23.350;2022-10-17T07:58:59;7.43;;;6.72;;
6898;SDS011;3488;42.616;23.350;2022-10-17T08:01:26;6.93;;;6.32;;
6898;SDS011;3488;42.616;23.350;2022-10-17T08:03:53;7.70;;;6.63;;
6898;SDS011;3488;42.616;23.350;2022-10-17T08:06:19;8.18;;;6.78;;
6898;SDS011;3488;42.616;23.350;2022-10-17T08:08:46;8.85;;;6.18;;
6898;SDS011;3488;42.616;23.350;2022-10-17T08:11:13;7.65;;;6.55;;
6898;SDS011;3488;42.616;23.350;2022-10-17T08:13:41;16.45;;;6.95;;
6898;SDS011;3488;42.616;23.350;2022-10-17T08:16:09;8.30;;;6.85;;
6898;SDS011;3488;42.616;23.350;2022-10-17T08:18:37;10.00;;;7.00;;
6898;SDS011;3488;42.616;23.350;2022-10-17T08:21:05;8.15;;;6.47;;
6898;SDS011;3488;42.616;23.350;2022-10-17T08:23:32;11.80;;;5.85;;
6898;SDS011;3488;42.616;23.350;2022-10-17T08:26:00;6.30;;;5.53;;
6898;SDS011;3488;42.616;23.350;2022-10-17T08:28:27;12.82;;;6.13;;
6898;SDS011;3488;42.616;23.350;2022-10-17T08:31:00;11.90;;;5.50;;
6898;SDS011;3488;42.616;23.350;2022-10-17T08:33:29;7.82;;;5.78;;
6898;SDS011;3488;42.616;23.350;2022-10-17T08:35:57;14.80;;;5.55;;
6898;SDS011;3488;42.616;23.350;2022-10-17T08:38:24;6.97;;;5.53;;
6898;SDS011;3488;42.616;23.350;2022-10-17T08:40:51;7.82;;;5.38;;
6898;SDS011;3488;42.616;23.350;2022-10-17T08:43:30;8.90;;;5.82;;
6898;SDS011;3488;42.616;23.350;2022-10-17T08:46:06;5.95;;;4.72;;
6898;SDS011;3488;42.616;23.350;2022-10-17T08:48:36;5.15;;;4.07;;
6898;SDS011;3488;42.616;23.350;2022-10-17T08:51:09;5.03;;;3.00;;
6898;SDS011;3488;42.616;23.350;2022-10-17T08:53:42;4.03;;;3.55;;
6898;SDS011;3488;42.616;23.350;2022-10-17T08:56:15;5.82;;;3.55;;
6898;SDS011;3488;42.616;23.350;2022-10-17T08:58:44;4.65;;;3.53;;
6898;SDS011;3488;42.616;23.350;2022-10-17T09:01:13;6.40;;;4.13;;
6898;SDS011;3488;42.616;23.350;2022-10-17T09:04:08;5.10;;;4.13;;
6898;SDS011;3488;42.616;23.350;2022-10-17T09:06:48;6.07;;;3.83;;
6898;SDS011;3488;42.616;23.350;2022-10-17T09:09:25;5.68;;;3.55;;
6898;SDS011;3488;42.616;23.350;2022-10-17T09:12:02;4.85;;;4.00;;
6898;SDS011;3488;42.616;23.350;2022-10-17T09:14:45;4.20;;;3.80;;
6898;SDS011;3488;42.616;23.350;2022-10-17T09:17:28;4.53;;;3.78;;
6898;SDS011;3488;42.616;23.350;2022-10-17T09:20:08;13.70;;;5.18;;
6898;SDS011;3488;42.616;23.350;2022-10-17T09:22:37;9.95;;;3.63;;
6898;SDS011;3488;42.616;23.350;2022-10-17T09:25:09;4.28;;;3.85;;
6898;SDS011;3488;42.616;23.350;2022-10-17T09:27:39;7.47;;;3.72;;
6898;SDS011;3488;42.616;23.350;2022-10-17T09:30:16;3.05;;;2.42;;
6898;SDS011;3488;42.616;23.350;2022-10-17T09:32:50;3.58;;;2.40;;
6898;SDS011;3488;42.616;23.350;2022-10-17T09:35:19;3.50;;;2.80;;
6898;SDS011;3488;42.616;23.350;2022-10-17T09:37:47;2.90;;;2.70;;
6898;SDS011;3488;42.616;23.350;2022-10-17T09:40:17;4.30;;;3.20;;
6898;SDS011;3488;42.616;23.350;2022-10-17T09:42:48;7.35;;;3.28;;
6898;SDS011;3488;42.616;23.350;2022-10-17T09:45:16;4.70;;;3.55;;
6898;SDS011;3488;42.616;23.350;2022-10-17T09:47:50;4.30;;;3.67;;
6898;SDS011;3488;42.616;23.350;2022-10-17T09:50:25;6.40;;;3.42;;
6898;SDS011;3488;42.616;23.350;2022-10-17T09:52:53;3.22;;;3.03;;
6898;SDS011;3488;42.616;23.350;2022-10-17T09:55:25;3.28;;;3.08;;
6898;SDS011;3488;42.616;23.350;2022-10-17T09:57:58;4.35;;;3.95;;
6898;SDS011;3488;42.616;23.350;2022-10-17T10:00:27;4.35;;;3.53;;
6898;SDS011;3488;42.616;23.350;2022-10-17T10:03:08;6.13;;;3.65;;
6898;SDS011;3488;42.616;23.350;2022-10-17T10:05:40;7.95;;;4.25;;
6898;SDS011;3488;42.616;23.350;2022-10-17T10:08:12;4.55;;;4.10;;
6898;SDS011;3488;42.616;23.350;2022-10-17T10:10:40;4.43;;;3.55;;
6898;SDS011;3488;42.616;23.350;2022-10-17T10:13:15;5.10;;;4.60;;
6898;SDS011;3488;42.616;23.350;2022-10-17T10:15:45;6.00;;;4.40;;
6898;SDS011;3488;42.616;23.350;2022-10-17T10:18:27;5.18;;;3.45;;
6898;SDS011;3488;42.616;23.350;2022-10-17T10:21:05;5.43;;;4.00;;
6898;SDS011;3488;42.616;23.350;2022-10-17T10:23:34;6.35;;;4.03;;
6898;SDS011;3488;42.616;23.350;2022-10-17T10:26:16;3.80;;;3.40;;
6898;SDS011;3488;42.616;23.350;2022-10-17T10:28:50;4.68;;;3.08;;
6898;SDS011;3488;42.616;23.350;2022-10-17T10:31:24;9.20;;;3.55;;
6898;SDS011;3488;42.616;23.350;2022-10-17T10:33:54;6.78;;;3.35;;
6898;SDS011;3488;42.616;23.350;2022-10-17T10:36:22;4.22;;;3.78;;
6898;SDS011;3488;42.616;23.350;2022-10-17T10:38:51;5.18;;;3.50;;
6898;SDS011;3488;42.616;23.350;2022-10-17T10:41:20;4.07;;;3.78;;
6898;SDS011;3488;42.616;23.350;2022-10-17T10:43:51;3.38;;;3.08;;
6898;SDS011;3488;42.616;23.350;2022-10-17T10:46:21;11.57;;;4.10;;
6898;SDS011;3488;42.616;23.350;2022-10-17T10:48:50;3.63;;;3.10;;
6898;SDS011;3488;42.616;23.350;2022-10-17T10:51:20;7.13;;;3.60;;
6898;SDS011;3488;42.616;23.350;2022-10-17T10:54:00;3.92;;;3.08;;
6898;SDS011;3488;42.616;23.350;2022-10-17T10:56:32;3.88;;;3.60;;
6898;SDS011;3488;42.616;23.350;2022-10-17T10:59:05;4.13;;;2.70;;
6898;SDS011;3488;42.616;23.350;2022-10-17T11:01:41;3.15;;;2.95;;
6898;SDS011;3488;42.616;23.350;2022-10-17T11:04:18;3.13;;;2.83;;
6898;SDS011;3488;42.616;23.350;2022-10-17T11:06:54;3.72;;;2.72;;
6898;SDS011;3488;42.616;23.350;2022-10-17T11:09:28;2.92;;;2.63;;
6898;SDS011;3488;42.616;23.350;2022-10-17T11:12:04;2.63;;;2.42;;
6898;SDS011;3488;42.616;23.350;2022-10-17T11:14:38;3.05;;;2.85;;
6898;SDS011;3488;42.616;23.350;2022-10-17T11:17:11;3.55;;;2.70;;
6898;SDS011;3488;42.616;23.350;2022-10-17T11:19:48;2.80;;;2.60;;
6898;SDS011;3488;42.616;23.350;2022-10-17T11:22:25;5.50;;;2.95;;
6898;SDS011;3488;42.616;23.350;2022-10-17T11:24:57;3.08;;;2.60;;
6898;SDS011;3488;42.616;23.350;2022-10-17T11:27:26;3.03;;;2.70;;
6898;SDS011;3488;42.616;23.350;2022-10-17T11:29:55;3.53;;;2.95;;
6898;SDS011;3488;42.616;23.350;2022-10-17T11:32:23;3.63;;;2.72;;
6898;SDS011;3488;42.616;23.350;2022-10-17T11:34:58;3.25;;;3.05;;
6898;SDS011;3488;42.616;23.350;2022-10-17T11:37:30;2.50;;;2.30;;
6898;SDS011;3488;42.616;23.350;2022-10-17T11:40:01;3.28;;;2.97;;
6898;SDS011;3488;42.616;23.350;2022-10-17T11:42:46;5.07;;;2.20;;
6898;SDS011;3488;42.616;23.350;2022-10-17T11:45:19;3.17;;;2.90;;
6898;SDS011;3488;42.616;23.350;2022-10-17T11:47:49;5.05;;;2.72;;
6898;SDS011;3488;42.616;23.350;2022-10-17T11:50:20;2.92;;;2.72;;
6898;SDS011;3488;42.616;23.350;2022-10-17T11:52:53;2.65;;;2.45;;
6898;SDS011;3488;42.616;23.350;2022-10-17T11:55:24;2.40;;;2.25;;
6898;SDS011;3488;42.616;23.350;2022-10-17T11:57:55;3.13;;;2.85;;
6898;SDS011;3488;42.616;23.350;2022-10-17T12:00:33;7.10;;;2.95;;
6898;SDS011;3488;42.616;23.350;2022-10-17T12:03:15;3.30;;;2.95;;
6898;SDS011;3488;42.616;23.350;2022-10-17T12:05:54;5.35;;;3.03;;
6898;SDS011;3488;42.616;23.350;2022-10-17T12:08:31;2.80;;;2.60;;
6898;SDS011;3488;42.616;23.350;2022-10-17T12:11:04;3.13;;;2.92;;
6898;SDS011;3488;42.616;23.350;2022-10-17T12:13:50;2.92;;;2.72;;
6898;SDS011;3488;42.616;23.350;2022-10-17T12:16:38;3.42;;;2.60;;
6898;SDS011;3488;42.616;23.350;2022-10-17T12:19:13;3.30;;;3.10;;
6898;SDS011;3488;42.616;23.350;2022-10-17T12:22:15;4.05;;;2.60;;
6898;SDS011;3488;42.616;23.350;2022-10-17T12:24:53;4.90;;;2.78;;
6898;SDS011;3488;42.616;23.350;2022-10-17T12:30:15;2.67;;;2.50;;
6898;SDS011;3488;42.616;23.350;2022-10-17T12:33:01;5.85;;;3.40;;
6898;SDS011;3488;42.616;23.350;2022-10-17T12:35:30;4.47;;;2.80;;
6898;SDS011;3488;42.616;23.350;2022-10-17T12:41:04;3.70;;;3.03;;
6898;SDS011;3488;42.616;23.350;2022-10-17T12:46:42;2.75;;;2.60;;
6898;SDS011;3488;42.616;23.350;2022-10-17T12:49:23;2.95;;;2.70;;
6898;SDS011;3488;42.616;23.350;2022-10-17T12:52:16;5.90;;;2.80;;
6898;SDS011;3488;42.616;23.350;2022-10-17T12:54:46;2.92;;;2.80;;
6898;SDS011;3488;42.616;23.350;2022-10-17T12:57:19;4.50;;;3.03;;
6898;SDS011;3488;42.616;23.350;2022-10-17T12:59:50;3.20;;;2.28;;
6898;SDS011;3488;42.616;23.350;2022-10-17T13:02:19;3.20;;;2.28;;
6898;SDS011;3488;42.616;23.350;2022-10-17T13:04:49;2.67;;;2.47;;
6898;SDS011;3488;42.616;23.350;2022-10-17T13:07:22;2.97;;;2.67;;
6898;SDS011;3488;42.616;23.350;2022-10-17T13:09:50;2.95;;;2.75;;
6898;SDS011;3488;42.616;23.350;2022-10-17T13:12:19;6.50;;;2.70;;
6898;SDS011;3488;42.616;23.350;2022-10-17T13:14:51;3.92;;;2.83;;
6898;SDS011;3488;42.616;23.350;2022-10-17T13:17:21;3.58;;;3.33;;
6898;SDS011;3488;42.616;23.350;2022-10-17T13:19:49;3.53;;;3.13;;
6898;SDS011;3488;42.616;23.350;2022-10-17T13:22:17;2.78;;;2.60;;
6898;SDS011;3488;42.616;23.350;2022-10-17T13:24:46;3.55;;;2.78;;
6898;SDS011;3488;42.616;23.350;2022-10-17T13:27:25;3.35;;;2.85;;
6898;SDS011;3488;42.616;23.350;2022-10-17T13:29:53;6.82;;;2.97;;
6898;SDS011;3488;42.616;23.350;2022-10-17T13:32:21;5.63;;;2.55;;
6898;SDS011;3488;42.616;23.350;2022-10-17T13:35:05;2.60;;;2.40;;
6898;SDS011;3488;42.616;23.350;2022-10-17T13:37:34;4.18;;;3.33;;
6898;SDS011;3488;42.616;23.350;2022-10-17T13:40:01;4.75;;;2.40;;
6898;SDS011;3488;42.616;23.350;2022-10-17T13:42:35;2.70;;;2.53;;
6898;SDS011;3488;42.616;23.350;2022-10-17T13:45:09;4.30;;;2.75;;
6898;SDS011;3488;42.616;23.350;2022-10-17T13:47:44;2.22;;;2.13;;
6898;SDS011;3488;42.616;23.350;2022-10-17T13:50:19;2.92;;;2.67;;
6898;SDS011;3488;42.616;23.350;2022-10-17T13:53:04;2.05;;;1.95;;
6898;SDS011;3488;42.616;23.350;2022-10-17T13:55:58;4.78;;;2.50;;
6898;SDS011;3488;42.616;23.350;2022-10-17T13:58:30;4.90;;;2.00;;
6898;SDS011;3488;42.616;23.350;2022-10-17T14:01:04;3.63;;;2.10;;
6898;SDS011;3488;42.616;23.350;2022-10-17T14:03:32;3.60;;;2.30;;
6898;SDS011;3488;42.616;23.350;2022-10-17T14:06:12;2.72;;;2.53;;
6898;SDS011;3488;42.616;23.350;2022-10-17T14:08:46;2.88;;;2.45;;
6898;SDS011;3488;42.616;23.350;2022-10-17T14:11:22;3.67;;;2.35;;
6898;SDS011;3488;42.616;23.350;2022-10-17T14:13:54;3.05;;;2.58;;
6898;SDS011;3488;42.616;23.350;2022-10-17T14:16:22;2.58;;;2.33;;
6898;SDS011;3488;42.616;23.350;2022-10-17T14:18:51;6.47;;;2.28;;
6898;SDS011;3488;42.616;23.350;2022-10-17T14:21:20;5.50;;;2.03;;
6898;SDS011;3488;42.616;23.350;2022-10-17T14:23:50;3.50;;;2.47;;
6898;SDS011;3488;42.616;23.350;2022-10-17T14:26:19;4.97;;;2.45;;
6898;SDS011;3488;42.616;23.350;2022-10-17T14:28:48;3.00;;;2.70;;
6898;SDS011;3488;42.616;23.350;2022-10-17T14:34:00;2.42;;;2.30;;
6898;SDS011;3488;42.616;23.350;2022-10-17T14:36:30;2.42;;;2.33;;
6898;SDS011;3488;42.616;23.350;2022-10-17T14:39:00;6.38;;;2.40;;
6898;SDS011;3488;42.616;23.350;2022-10-17T14:41:28;3.78;;;1.98;;
6898;SDS011;3488;42.616;23.350;2022-10-17T14:43:58;3.58;;;2.70;;
6898;SDS011;3488;42.616;23.350;2022-10-17T14:46:27;1.95;;;1.83;;
6898;SDS011;3488;42.616;23.350;2022-10-17T14:49:04;4.28;;;2.40;;
6898;SDS011;3488;42.616;23.350;2022-10-17T14:51:32;3.30;;;2.80;;
6898;SDS011;3488;42.616;23.350;2022-10-17T14:54:00;2.38;;;2.17;;
6898;SDS011;3488;42.616;23.350;2022-10-17T14:56:33;3.10;;;2.40;;
6898;SDS011;3488;42.616;23.350;2022-10-17T14:59:01;2.30;;;2.20;;
6898;SDS011;3488;42.616;23.350;2022-10-17T15:01:30;3.00;;;2.80;;
6898;SDS011;3488;42.616;23.350;2022-10-17T15:03:59;4.68;;;2.55;;
6898;SDS011;3488;42.616;23.350;2022-10-17T15:06:27;2.67;;;2.47;;
6898;SDS011;3488;42.616;23.350;2022-10-17T15:08:55;6.32;;;2.28;;
6898;SDS011;3488;42.616;23.350;2022-10-17T15:11:22;2.70;;;2.50;;
6898;SDS011;3488;42.616;23.350;2022-10-17T15:13:49;2.60;;;2.40;;
6898;SDS011;3488;42.616;23.350;2022-10-17T15:16:17;2.88;;;2.67;;
6898;SDS011;3488;42.616;23.350;2022-10-17T15:18:45;3.55;;;3.30;;
6898;SDS011;3488;42.616;23.350;2022-10-17T15:21:15;4.07;;;3.10;;
6898;SDS011;3488;42.616;23.350;2022-10-17T15:23:44;3.67;;;3.40;;
6898;SDS011;3488;42.616;23.350;2022-10-17T15:26:15;5.28;;;2.67;;
6898;SDS011;3488;42.616;23.350;2022-10-17T15:28:45;6.75;;;4.15;;